createdAt,value
2022-08-12T00:00:08.003Z,17.61
2022-08-12T00:02:54.338Z,17.62
2022-08-12T00:06:01.879Z,17.44
2022-08-12T00:08:48.594Z,17.36
2022-08-12T00:11:33.967Z,17.29
2022-08-12T00:14:19.080Z,17.28
2022-08-12T00:17:04.515Z,17.34
2022-08-12T00:19:49.649Z,17.23
2022-08-12T00:22:35.197Z,17.15
2022-08-12T00:25:21.084Z,17.19
2022-08-12T00:28:26.958Z,17.04
2022-08-12T00:31:12.908Z,16.77
2022-08-12T00:33:58.086Z,16.91
2022-08-12T00:36:46.392Z,16.91
2022-08-12T00:39:35.673Z,16.95
2022-08-12T00:42:11.894Z,16.93
2022-08-12T00:44:44.727Z,16.89
2022-08-12T00:47:24.922Z,16.82
2022-08-12T00:49:54.620Z,16.78
2022-08-12T00:52:22.624Z,16.56
2022-08-12T00:54:57.099Z,16.71
2022-08-12T00:57:30.790Z,16.74
2022-08-12T01:00:03.879Z,16.70
2022-08-12T01:02:38.755Z,16.67
2022-08-12T01:05:29.147Z,16.57
2022-08-12T01:08:15.488Z,16.63
2022-08-12T01:11:03.076Z,16.63
2022-08-12T01:13:32.208Z,16.56
2022-08-12T01:16:02.909Z,16.52
2022-08-12T01:18:33.972Z,16.45
2022-08-12T01:21:12.882Z,16.29
2022-08-12T01:23:53.267Z,16.29
2022-08-12T01:26:23.583Z,16.37
2022-08-12T01:29:00.757Z,16.25
2022-08-12T01:31:31.957Z,16.30
2022-08-12T01:34:28.384Z,16.29
2022-08-12T01:36:59.740Z,16.17
2022-08-12T01:39:31.063Z,16.05
2022-08-12T01:42:03.611Z,16.11
2022-08-12T01:44:32.709Z,16.12
2022-08-12T01:47:05.970Z,16.23
2022-08-12T01:49:53.711Z,16.21
2022-08-12T01:52:34.850Z,16.10
2022-08-12T01:55:02.607Z,16.13
2022-08-12T01:57:59.169Z,16.14
2022-08-12T02:00:55.538Z,16.30
2022-08-12T02:04:07.128Z,16.13
2022-08-12T02:06:59.566Z,16.20
2022-08-12T02:09:58.831Z,16.16
2022-08-12T02:12:44.114Z,16.11
2022-08-12T02:15:27.471Z,16.10
2022-08-12T02:17:57.762Z,16.13
2022-08-12T02:20:51.369Z,15.99
2022-08-12T02:23:23.330Z,15.92
2022-08-12T02:25:55.266Z,15.97
2022-08-12T02:28:21.852Z,15.99
2022-08-12T02:30:48.651Z,16.01
2022-08-12T02:33:18.139Z,15.90
2022-08-12T02:35:45.200Z,15.82
2022-08-12T02:38:12.762Z,15.76
2022-08-12T02:40:45.477Z,15.67
2022-08-12T02:43:17.271Z,15.54
2022-08-12T02:45:45.494Z,15.46
2022-08-12T02:48:18.868Z,15.43
2022-08-12T02:50:50.390Z,15.50
2022-08-12T02:53:17.612Z,15.41
2022-08-12T02:55:45.784Z,15.38
2022-08-12T02:58:14.502Z,15.46
2022-08-12T03:00:42.835Z,15.28
2022-08-12T03:03:12.925Z,15.27
2022-08-12T03:05:58.175Z,15.22
2022-08-12T03:08:32.645Z,15.16
2022-08-12T03:11:15.832Z,15.12
2022-08-12T03:13:47.189Z,15.16
2022-08-12T03:16:14.938Z,15.16
2022-08-12T03:18:45.770Z,15.08
2022-08-12T03:21:16.957Z,14.94
2022-08-12T03:23:45.893Z,14.94
2022-08-12T03:26:14.834Z,14.92
2022-08-12T03:28:51.718Z,14.98
2022-08-12T03:31:21.814Z,15.06
2022-08-12T03:34:02.124Z,15.03
2022-08-12T03:36:33.608Z,15.09
2022-08-12T03:39:18.554Z,15.02
2022-08-12T03:42:24.536Z,15.02
2022-08-12T03:45:52.144Z,14.86
2022-08-12T03:48:39.193Z,14.91
2022-08-12T03:51:24.730Z,14.79
2022-08-12T03:54:11.527Z,14.79
2022-08-12T03:56:58.201Z,14.76
2022-08-12T03:59:43.270Z,14.62
2022-08-12T04:02:14.890Z,14.60
2022-08-12T04:04:45.447Z,14.53
2022-08-12T04:07:13.822Z,14.65
2022-08-12T04:09:43.658Z,14.76
2022-08-12T04:12:32.281Z,14.63
2022-08-12T04:15:00.484Z,14.61
2022-08-12T04:17:28.344Z,14.33
2022-08-12T04:19:59.073Z,14.43
2022-08-12T04:22:29.879Z,14.50
2022-08-12T04:25:03.332Z,14.42
2022-08-12T04:27:31.841Z,14.37
2022-08-12T04:30:31.371Z,14.30
2022-08-12T04:32:46.267Z,14.21
2022-08-12T04:35:13.096Z,14.30
2022-08-12T04:37:59.779Z,14.24
2022-08-12T04:40:28.948Z,14.18
2022-08-12T04:42:56.070Z,14.37
2022-08-12T04:45:22.914Z,14.37
2022-08-12T04:47:49.596Z,14.28
2022-08-12T04:50:35.058Z,14.18
2022-08-12T04:53:06.532Z,14.56
2022-08-12T04:55:33.617Z,14.63
2022-08-12T04:58:00.369Z,14.79
2022-08-12T05:00:27.753Z,14.95
2022-08-12T05:02:54.456Z,14.70
2022-08-12T05:05:23.262Z,14.74
2022-08-12T05:07:54.479Z,14.88
2022-08-12T05:10:33.798Z,15.09
2022-08-12T05:13:09.391Z,16.00
2022-08-12T05:16:05.021Z,17.45
2022-08-12T05:18:29.379Z,18.65
2022-08-12T05:20:56.732Z,19.33
2022-08-12T05:23:23.451Z,19.78
2022-08-12T05:25:51.994Z,20.24
2022-08-12T05:28:18.577Z,20.53
2022-08-12T05:30:46.152Z,20.89
2022-08-12T05:33:15.690Z,21.17
2022-08-12T05:35:44.706Z,21.55
2022-08-12T05:38:32.268Z,21.64
2022-08-12T05:41:00.011Z,22.19
2022-08-12T05:43:27.149Z,22.71
2022-08-12T05:45:54.819Z,23.05
2022-08-12T05:48:21.898Z,23.55
2022-08-12T05:50:48.939Z,23.72
2022-08-12T05:53:15.924Z,23.91
2022-08-12T05:55:42.675Z,23.70
2022-08-12T05:58:09.289Z,23.62
2022-08-12T06:00:37.240Z,23.73
2022-08-12T06:03:06.167Z,23.67
2022-08-12T06:05:52.554Z,23.63
2022-08-12T06:08:21.596Z,24.00
2022-08-12T06:10:50.284Z,24.20
2022-08-12T06:13:25.668Z,23.81
2022-08-12T06:15:56.341Z,24.58
2022-08-12T06:18:29.209Z,24.90
2022-08-12T06:21:02.019Z,24.89
2022-08-12T06:23:30.164Z,25.23
2022-08-12T06:25:57.700Z,24.74
2022-08-12T06:28:24.621Z,24.75
2022-08-12T06:31:22.073Z,24.76
2022-08-12T06:33:59.640Z,24.53
2022-08-12T06:36:29.871Z,24.80
2022-08-12T06:38:59.396Z,25.17
2022-08-12T06:42:05.045Z,25.12
2022-08-12T06:44:32.742Z,24.28
2022-08-12T06:46:59.647Z,24.65
2022-08-12T06:49:28.500Z,24.35
2022-08-12T06:51:56.852Z,24.43
2022-08-12T06:54:31.109Z,24.39
2022-08-12T06:57:05.406Z,24.64
2022-08-12T06:59:46.687Z,25.03
2022-08-12T07:02:13.818Z,25.45
2022-08-12T07:04:40.601Z,25.23
2022-08-12T07:07:10.828Z,25.42
2022-08-12T07:10:03.763Z,25.35
2022-08-12T07:12:28.336Z,25.97
2022-08-12T07:14:58.790Z,26.12
2022-08-12T07:17:26.641Z,25.55
2022-08-12T07:19:53.802Z,25.89
2022-08-12T07:22:23.353Z,25.87
2022-08-12T07:25:10.038Z,25.62
2022-08-12T07:27:42.767Z,25.94
2022-08-12T07:30:10.249Z,25.93
2022-08-12T07:32:40.447Z,25.94
2022-08-12T07:35:07.529Z,26.26
2022-08-12T07:37:40.637Z,26.45
2022-08-12T07:40:11.806Z,26.50
2022-08-12T07:42:40.731Z,26.34
2022-08-12T07:45:09.497Z,26.48
2022-08-12T07:47:36.668Z,26.54
2022-08-12T07:50:09.240Z,26.77
2022-08-12T07:52:38.441Z,26.94
2022-08-12T07:55:05.848Z,26.71
2022-08-12T07:57:35.555Z,26.69
2022-08-12T08:00:05.251Z,26.51
2022-08-12T08:02:35.889Z,26.29
2022-08-12T08:05:04.211Z,26.25
2022-08-12T08:07:31.185Z,26.94
2022-08-12T08:10:00.671Z,27.45
2022-08-12T08:12:47.462Z,27.05
2022-08-12T08:15:15.780Z,27.20
2022-08-12T08:17:59.784Z,27.54
2022-08-12T08:20:30.808Z,27.77
2022-08-12T08:22:59.148Z,27.97
2022-08-12T08:25:37.302Z,28.09
2022-08-12T08:28:08.833Z,28.03
2022-08-12T08:30:38.368Z,27.91
2022-08-12T08:33:22.809Z,27.25
2022-08-12T08:35:49.970Z,27.05
2022-08-12T08:38:32.374Z,27.13
2022-08-12T08:42:17.088Z,27.10
2022-08-12T08:44:10.871Z,27.46
2022-08-12T08:46:38.395Z,27.39
2022-08-12T08:49:06.207Z,26.81
2022-08-12T08:51:33.157Z,26.49
2022-08-12T08:53:59.774Z,26.56
2022-08-12T08:56:27.256Z,25.66
2022-08-12T08:58:53.845Z,25.90
2022-08-12T09:01:23.497Z,25.35
2022-08-12T09:05:09.663Z,25.43
2022-08-12T09:06:41.946Z,25.28
2022-08-12T09:09:20.623Z,25.26
2022-08-12T09:14:52.675Z,25.18
2022-08-12T09:17:21.294Z,25.00
2022-08-12T09:22:37.699Z,25.38
2022-08-12T09:25:07.334Z,25.22
2022-08-12T09:28:04.274Z,25.43
2022-08-12T09:30:41.698Z,25.40
2022-08-12T09:33:18.456Z,25.92
2022-08-12T09:35:46.931Z,26.24
2022-08-12T09:38:33.715Z,26.51
2022-08-12T09:42:33.915Z,26.57
2022-08-12T09:44:38.279Z,26.28
2022-08-12T09:46:54.945Z,26.71
2022-08-12T09:49:25.141Z,27.02
2022-08-12T09:51:55.462Z,26.99
2022-08-12T09:54:33.773Z,27.16
2022-08-12T09:58:46.872Z,26.97
2022-08-12T10:00:16.904Z,27.09
2022-08-12T10:03:01.088Z,27.10
2022-08-12T10:06:20.021Z,27.21
2022-08-12T10:08:17.277Z,27.18
2022-08-12T10:11:05.848Z,27.57
2022-08-12T10:13:43.461Z,27.55
2022-08-12T10:16:21.911Z,27.54
2022-08-12T10:18:54.312Z,27.73
2022-08-12T10:21:35.489Z,27.79
2022-08-12T10:24:11.864Z,27.81
2022-08-12T10:27:00.002Z,28.22
2022-08-12T10:30:40.712Z,27.84
2022-08-12T10:32:43.862Z,27.99
2022-08-12T10:35:15.341Z,27.66
2022-08-12T10:38:33.966Z,26.94
2022-08-12T10:40:33.205Z,27.60
2022-08-12T10:43:19.848Z,27.51
2022-08-12T10:45:49.362Z,27.72
2022-08-12T10:48:21.979Z,27.48
2022-08-12T10:50:58.381Z,27.88
2022-08-12T10:53:45.129Z,27.89
2022-08-12T10:56:17.224Z,27.94
2022-08-12T10:58:47.658Z,28.23
2022-08-12T11:01:48.920Z,28.03
2022-08-12T11:04:26.118Z,28.50
2022-08-12T11:07:07.996Z,28.50
2022-08-12T11:09:56.571Z,28.69
2022-08-12T11:12:55.297Z,28.52
2022-08-12T11:15:20.878Z,28.39
2022-08-12T11:17:53.790Z,28.48
2022-08-12T11:20:24.373Z,28.64
2022-08-12T11:22:59.627Z,28.83
2022-08-12T11:25:42.410Z,28.56
2022-08-12T11:28:14.346Z,29.20
2022-08-12T11:30:41.282Z,29.26
2022-08-12T11:33:11.773Z,28.82
2022-08-12T11:35:42.969Z,28.15
2022-08-12T11:38:12.840Z,28.25
2022-08-12T11:40:42.639Z,28.41
2022-08-12T11:43:18.864Z,28.58
2022-08-12T11:45:47.538Z,28.11
2022-08-12T11:48:15.666Z,27.72
2022-08-12T11:50:45.924Z,27.74
2022-08-12T11:53:58.557Z,28.38
2022-08-12T11:55:59.231Z,28.61
2022-08-12T11:59:04.611Z,28.60
2022-08-12T12:02:02.813Z,28.01
2022-08-12T12:04:00.210Z,27.78
2022-08-12T12:06:28.791Z,27.43
2022-08-12T12:08:55.406Z,27.38
2022-08-12T12:11:23.011Z,28.03
2022-08-12T12:14:06.893Z,28.19
2022-08-12T12:16:39.731Z,28.47
2022-08-12T12:19:08.812Z,28.47
2022-08-12T12:21:48.481Z,28.60
2022-08-12T12:24:21.167Z,28.76
2022-08-12T12:27:00.065Z,28.95
2022-08-12T12:30:14.110Z,28.22
2022-08-12T12:32:28.916Z,27.74
2022-08-12T12:35:14.592Z,27.78
2022-08-12T12:38:03.558Z,27.97
2022-08-12T12:40:34.373Z,27.68
2022-08-12T12:43:05.188Z,27.96
2022-08-12T12:45:35.574Z,27.66
2022-08-12T12:48:13.264Z,27.65
2022-08-12T12:51:12.244Z,27.63
2022-08-12T12:54:07.593Z,27.61
2022-08-12T12:56:34.286Z,28.26
2022-08-12T12:59:03.874Z,28.52
2022-08-12T13:01:32.933Z,28.55
2022-08-12T13:04:03.119Z,28.48
2022-08-12T13:06:31.558Z,28.90
2022-08-12T13:09:02.746Z,28.60
2022-08-12T13:11:40.785Z,28.34
2022-08-12T13:14:28.129Z,27.93
2022-08-12T13:16:57.648Z,27.71
2022-08-12T13:19:38.824Z,27.99
2022-08-12T13:22:23.438Z,28.33
2022-08-12T13:24:55.714Z,27.96
2022-08-12T13:27:34.632Z,28.17
2022-08-12T13:30:11.030Z,28.09
2022-08-12T13:32:40.496Z,27.66
2022-08-12T13:35:19.871Z,27.49
2022-08-12T13:37:56.997Z,27.26
2022-08-12T13:40:25.236Z,26.96
2022-08-12T13:42:58.004Z,27.14
2022-08-12T13:45:30.096Z,26.82
2022-08-12T13:48:02.329Z,26.67
2022-08-12T13:50:40.060Z,27.38
2022-08-12T13:53:24.132Z,27.71
2022-08-12T13:56:01.551Z,27.78
2022-08-12T13:58:30.719Z,28.01
2022-08-12T14:00:58.620Z,27.81
2022-08-12T14:03:28.033Z,27.64
2022-08-12T14:05:58.019Z,27.65
2022-08-12T14:08:26.064Z,27.42
2022-08-12T14:11:02.268Z,27.87
2022-08-12T14:14:03.951Z,28.20
2022-08-12T14:16:48.494Z,28.20
2022-08-12T14:19:10.707Z,28.27
2022-08-12T14:22:01.048Z,28.12
2022-08-12T14:24:35.599Z,28.33
2022-08-12T14:27:08.816Z,28.46
2022-08-12T14:29:55.673Z,28.67
2022-08-12T14:32:23.632Z,28.79
2022-08-12T14:34:51.759Z,28.61
2022-08-12T14:37:57.245Z,28.62
2022-08-12T14:40:06.510Z,28.23
2022-08-12T14:42:33.147Z,27.85
2022-08-12T14:45:01.744Z,27.66
2022-08-12T14:47:35.426Z,27.76
2022-08-12T14:50:41.097Z,27.90
2022-08-12T14:56:58.927Z,28.29
2022-08-12T14:58:28.235Z,28.45
2022-08-12T15:01:17.145Z,28.33
2022-08-12T15:03:56.954Z,28.13
2022-08-12T15:06:43.595Z,28.01
2022-08-12T15:09:14.150Z,28.20
2022-08-12T15:11:48.759Z,28.28
2022-08-12T15:14:25.585Z,28.27
2022-08-12T15:16:53.173Z,28.45
2022-08-12T15:20:14.329Z,28.46
2022-08-12T15:22:38.685Z,28.23
2022-08-12T15:24:53.691Z,28.17
2022-08-12T15:27:22.406Z,28.20
2022-08-12T15:29:58.711Z,27.65
2022-08-12T15:32:32.485Z,27.95
2022-08-12T15:35:03.049Z,27.49
2022-08-12T15:38:10.716Z,27.61
2022-08-12T15:40:30.275Z,27.34
2022-08-12T15:42:59.732Z,27.41
2022-08-12T15:45:32.166Z,27.56
2022-08-12T15:48:16.397Z,27.81
2022-08-12T15:50:46.875Z,27.68
2022-08-12T15:53:42.010Z,27.70
2022-08-12T15:56:12.641Z,27.40
2022-08-12T15:58:41.794Z,27.60
2022-08-12T16:01:15.429Z,27.76
2022-08-12T16:04:00.379Z,27.82
2022-08-12T16:06:50.973Z,27.74
2022-08-12T16:09:21.531Z,27.80
2022-08-12T16:11:48.785Z,27.57
2022-08-12T16:14:16.095Z,27.84
2022-08-12T16:16:43.102Z,27.56
2022-08-12T16:20:01.816Z,27.72
2022-08-12T16:22:05.103Z,27.68
2022-08-12T16:24:34.980Z,27.64
2022-08-12T16:27:06.530Z,27.65
2022-08-12T16:29:53.252Z,27.51
2022-08-12T16:32:24.197Z,27.25
2022-08-12T16:34:54.919Z,27.13
2022-08-12T16:37:32.166Z,26.90
2022-08-12T16:40:06.141Z,26.86
2022-08-12T16:42:39.412Z,26.77
2022-08-12T16:45:15.380Z,26.64
2022-08-12T16:47:58.454Z,26.65
2022-08-12T16:50:30.610Z,26.64
2022-08-12T16:52:57.520Z,26.27
2022-08-12T16:55:26.660Z,26.23
2022-08-12T16:57:54.054Z,26.05
2022-08-12T17:00:24.123Z,26.22
2022-08-12T17:02:57.274Z,26.38
2022-08-12T17:05:31.447Z,26.21
2022-08-12T17:08:00.168Z,26.08
2022-08-12T17:10:36.361Z,25.96
2022-08-12T17:13:09.930Z,26.06
2022-08-12T17:15:57.033Z,26.09
2022-08-12T17:18:42.598Z,25.55
2022-08-12T17:21:19.573Z,25.71
2022-08-12T17:23:53.603Z,25.27
2022-08-12T17:26:22.400Z,25.61
2022-08-12T17:28:56.618Z,25.42
2022-08-12T17:32:00.955Z,25.51
2022-08-12T17:34:29.918Z,25.39
2022-08-12T17:36:56.825Z,25.40
2022-08-12T17:40:06.513Z,25.40
2022-08-12T17:42:32.890Z,25.38
2022-08-12T17:45:01.901Z,25.33
2022-08-12T17:47:44.418Z,25.31
2022-08-12T17:50:13.000Z,25.30
2022-08-12T17:52:40.327Z,25.38
2022-08-12T17:55:39.864Z,25.12
2022-08-12T17:58:00.253Z,25.00
2022-08-12T18:00:28.583Z,25.00
2022-08-12T18:02:59.804Z,24.82
2022-08-12T18:05:29.533Z,24.88
2022-08-12T18:08:15.966Z,24.89
2022-08-12T18:11:05.333Z,24.77
2022-08-12T18:13:41.060Z,24.69
2022-08-12T18:16:13.272Z,24.67
2022-08-12T18:18:43.529Z,24.84
2022-08-12T18:21:13.933Z,24.43
2022-08-12T18:23:50.791Z,24.24
2022-08-12T18:26:23.043Z,24.10
2022-08-12T18:28:54.578Z,24.09
2022-08-12T18:31:44.393Z,23.87
2022-08-12T18:34:19.182Z,23.81
2022-08-12T18:36:50.365Z,23.71
2022-08-12T18:39:19.684Z,23.56
2022-08-12T18:41:47.259Z,23.46
2022-08-12T18:44:14.181Z,23.36
2022-08-12T18:46:47.302Z,23.40
2022-08-12T18:49:28.413Z,23.31
2022-08-12T18:52:04.497Z,23.23
2022-08-12T18:54:54.071Z,23.07
2022-08-12T18:57:46.012Z,22.90
2022-08-12T19:00:21.443Z,22.87
2022-08-12T19:02:50.636Z,22.88
2022-08-12T19:05:17.820Z,22.80
2022-08-12T19:08:01.177Z,22.71
2022-08-12T19:10:30.438Z,22.60
2022-08-12T19:13:23.235Z,22.57
2022-08-12T19:15:53.473Z,22.32
2022-08-12T19:18:22.055Z,22.37
2022-08-12T19:20:50.441Z,22.32
2022-08-12T19:23:20.793Z,22.33
2022-08-12T19:25:59.653Z,22.19
2022-08-12T19:28:34.748Z,22.13
2022-08-12T19:31:56.472Z,22.13
2022-08-12T19:37:38.741Z,22.04
2022-08-12T19:40:20.497Z,22.00
2022-08-12T19:43:13.169Z,21.89
2022-08-12T19:45:49.598Z,21.81
2022-08-12T19:48:18.944Z,21.72
2022-08-12T19:50:52.392Z,21.76
2022-08-12T19:53:22.602Z,21.75
2022-08-12T19:55:54.951Z,21.66
2022-08-12T19:58:23.166Z,21.62
2022-08-12T20:00:53.457Z,21.46
2022-08-12T20:03:37.912Z,21.55
2022-08-12T20:06:14.106Z,21.41
2022-08-12T20:08:53.812Z,21.44
2022-08-12T20:12:14.635Z,21.15
2022-08-12T20:14:18.107Z,20.82
2022-08-12T20:16:57.765Z,20.97
2022-08-12T20:20:02.717Z,20.85
2022-08-12T20:22:29.386Z,20.83
2022-08-12T20:25:01.110Z,20.75
2022-08-12T20:28:03.242Z,20.73
2022-08-12T20:30:18.190Z,20.51
2022-08-12T20:32:56.054Z,20.42
2022-08-12T20:35:25.067Z,20.45
2022-08-12T20:38:26.749Z,20.42
2022-08-12T20:40:55.699Z,20.31
2022-08-12T20:43:24.173Z,20.23
2022-08-12T20:45:58.116Z,20.25
2022-08-12T20:48:28.732Z,20.09
2022-08-12T20:50:56.726Z,19.79
2022-08-12T20:53:28.957Z,20.02
2022-08-12T20:56:19.581Z,19.84
2022-08-12T20:58:46.415Z,19.85
2022-08-12T21:01:15.235Z,19.79
2022-08-12T21:04:04.744Z,19.90
2022-08-12T21:06:50.234Z,19.79
2022-08-12T21:09:22.517Z,19.72
2022-08-12T21:11:55.779Z,19.70
2022-08-12T21:14:53.084Z,19.65
2022-08-12T21:17:15.921Z,19.31
2022-08-12T21:19:52.895Z,19.44
2022-08-12T21:22:24.699Z,19.26
2022-08-12T21:24:52.921Z,19.29
2022-08-12T21:27:20.006Z,19.09
2022-08-12T21:29:50.013Z,19.11
2022-08-12T21:32:37.415Z,19.15
2022-08-12T21:35:07.908Z,18.88
2022-08-12T21:37:37.441Z,18.85
2022-08-12T21:40:13.585Z,18.90
2022-08-12T21:42:42.226Z,18.98
2022-08-12T21:45:45.367Z,18.95
2022-08-12T21:47:59.459Z,18.73
2022-08-12T21:50:29.458Z,18.76
2022-08-12T21:52:57.706Z,18.53
2022-08-12T21:55:28.867Z,18.44
2022-08-12T21:58:10.775Z,18.26
2022-08-12T22:00:39.809Z,18.46
2022-08-12T22:04:04.134Z,18.43
2022-08-12T22:06:31.829Z,18.30
2022-08-12T22:09:09.067Z,18.15
2022-08-12T22:11:44.006Z,18.14
2022-08-12T22:14:21.627Z,18.04
2022-08-12T22:16:51.027Z,18.06
2022-08-12T22:19:19.610Z,18.03
2022-08-12T22:21:54.782Z,18.00
2022-08-12T22:24:27.076Z,18.00
2022-08-12T22:26:56.356Z,17.98
2022-08-12T22:29:42.275Z,17.89
2022-08-12T22:32:11.291Z,17.94
2022-08-12T22:34:39.339Z,17.90
2022-08-12T22:37:11.354Z,17.74
2022-08-12T22:39:46.190Z,17.65
2022-08-12T22:42:34.169Z,17.77
2022-08-12T22:45:23.422Z,17.56
2022-08-12T22:47:54.956Z,17.44
2022-08-12T22:50:29.603Z,17.35
2022-08-12T22:53:15.673Z,17.18
2022-08-12T22:56:05.573Z,17.26
2022-08-12T22:58:33.590Z,17.34
2022-08-12T23:01:01.967Z,17.27
2022-08-12T23:03:48.239Z,17.12
2022-08-12T23:06:19.567Z,17.28
2022-08-12T23:08:46.460Z,17.04
2022-08-12T23:11:16.076Z,17.22
2022-08-12T23:13:55.426Z,17.10
2022-08-12T23:16:31.695Z,17.15
2022-08-12T23:19:18.050Z,17.00
2022-08-12T23:22:03.937Z,16.90
2022-08-12T23:24:55.564Z,17.03
2022-08-12T23:27:52.183Z,17.02
2022-08-12T23:30:31.095Z,16.85
2022-08-12T23:33:00.617Z,16.92
2022-08-12T23:35:46.136Z,16.76
2022-08-12T23:38:30.720Z,16.76
2022-08-12T23:41:00.796Z,16.82
2022-08-12T23:43:39.868Z,16.59
2022-08-12T23:46:19.201Z,16.57
2022-08-12T23:48:47.909Z,16.62
2022-08-12T23:51:22.522Z,16.26
2022-08-12T23:54:02.535Z,16.36
2022-08-12T23:56:33.972Z,16.49
2022-08-12T23:59:03.365Z,16.42
